Time;durP1;ratioP1;P1;durP2;ratioP2;P2;SDS_P1;SDS_P2;PMS_P1;PMS_P2;Temp;Humidity;BMP_temperature;BMP_pressure;BME280_temperature;BME280_humidity;BME280_pressure;Samples;Min_cycle;Max_cycle;Signal;HPM_P1;HPM_P2
2021/03/07 00:01:31;;;;;;;13.45;9.07;;;;;;;2.64;100.00;103254.41;5073447;28;20029;-67
2021/03/07 00:03:56;;;;;;;14.88;8.18;;;;;;;2.62;100.00;103256.38;5073240;28;20429;-64
2021/03/07 00:06:22;;;;;;;15.57;9.05;;;;;;;2.60;100.00;103255.66;5055363;28;20040;-65
2021/03/07 00:08:47;;;;;;;18.23;9.40;;;;;;;2.58;100.00;103254.06;5073347;28;20375;-64
2021/03/07 00:11:13;;;;;;;20.98;10.10;;;;;;;2.54;100.00;103253.47;5073158;28;20037;-66
2021/03/07 00:13:39;;;;;;;17.00;10.20;;;;;;;2.52;100.00;103244.66;5073034;28;20050;-65
2021/03/07 00:16:05;;;;;;;17.58;10.75;;;;;;;2.51;100.00;103248.34;5072931;28;20437;-66
2021/03/07 00:18:30;;;;;;;14.95;9.38;;;;;;;2.48;100.00;103240.50;5073129;28;20032;-65
2021/03/07 00:20:56;;;;;;;18.75;9.57;;;;;;;2.46;100.00;103229.00;5073009;28;20491;-65
2021/03/07 00:23:22;;;;;;;16.58;9.75;;;;;;;2.43;100.00;103245.44;5072959;28;20036;-63
2021/03/07 00:25:47;;;;;;;14.63;8.98;;;;;;;2.38;100.00;103243.13;5072984;28;20043;-63
2021/03/07 00:28:13;;;;;;;15.02;9.45;;;;;;;2.38;100.00;103236.88;5072852;28;20124;-66
2021/03/07 00:30:38;;;;;;;13.38;9.50;;;;;;;2.36;100.00;103233.44;5072893;28;20032;-64
2021/03/07 00:33:04;;;;;;;20.00;9.48;;;;;;;2.35;100.00;103231.72;5072751;28;20111;-63
2021/03/07 00:35:29;;;;;;;16.55;9.73;;;;;;;2.34;100.00;103232.72;5072598;28;20059;-65
2021/03/07 00:37:55;;;;;;;17.38;9.05;;;;;;;2.32;100.00;103232.00;5072785;28;20036;-63
2021/03/07 00:40:21;;;;;;;13.40;8.95;;;;;;;2.30;100.00;103234.81;5072742;28;20041;-64
2021/03/07 00:42:48;;;;;;;11.13;8.50;;;;;;;2.28;100.00;103220.63;5072493;28;20033;-64
2021/03/07 00:45:16;;;;;;;16.70;9.38;;;;;;;2.26;100.00;103227.13;5072519;28;20123;-64
2021/03/07 00:47:42;;;;;;;15.27;9.23;;;;;;;2.25;100.00;103226.25;5072567;28;20090;-65
2021/03/07 00:50:11;;;;;;;17.70;10.13;;;;;;;2.23;100.00;103227.38;5054709;28;20445;-64
2021/03/07 00:52:37;;;;;;;17.95;10.00;;;;;;;2.23;100.00;103216.56;5072188;28;20094;-65
2021/03/07 00:55:04;;;;;;;14.18;9.55;;;;;;;2.20;100.00;103216.84;5072374;28;20570;-64
2021/03/07 00:57:29;;;;;;;17.30;9.88;;;;;;;2.18;100.00;103218.81;5072289;28;20040;-67
2021/03/07 00:59:55;;;;;;;14.25;9.13;;;;;;;2.17;100.00;103217.09;5072282;28;20455;-66
2021/03/07 01:02:20;;;;;;;14.98;9.57;;;;;;;2.16;100.00;103215.41;5053918;28;20048;-63
2021/03/07 01:04:46;;;;;;;16.25;9.30;;;;;;;2.16;100.00;103215.41;5072181;28;20033;-65
2021/03/07 01:07:13;;;;;;;15.68;10.48;;;;;;;2.16;100.00;103210.00;5072121;28;20043;-65
2021/03/07 01:09:38;;;;;;;20.58;12.93;;;;;;;2.16;100.00;103204.63;5072052;28;20044;-65
2021/03/07 01:12:05;;;;;;;21.10;13.07;;;;;;;2.15;100.00;103208.28;5071943;28;20052;-65
2021/03/07 01:14:32;;;;;;;25.98;13.40;;;;;;;2.14;100.00;103206.59;5071899;28;20064;-65
2021/03/07 01:16:57;;;;;;;18.00;11.18;;;;;;;2.09;100.00;103205.13;5071850;28;20094;-65
2021/03/07 01:19:35;;;;;;;20.75;10.80;;;;;;;2.08;100.00;103208.81;5071937;28;20040;-64
2021/03/07 01:22:02;;;;;;;18.65;10.68;;;;;;;2.06;100.00;103199.13;5071809;28;20036;-65
2021/03/07 01:24:28;;;;;;;18.02;10.50;;;;;;;2.04;100.00;103196.56;5071681;28;20043;-64
2021/03/07 01:26:53;;;;;;;17.48;10.27;;;;;;;2.03;100.00;103200.25;5071609;28;20040;-64
2021/03/07 01:29:19;;;;;;;17.17;9.45;;;;;;;2.02;100.00;103200.38;5071835;28;20040;-65
2021/03/07 01:31:45;;;;;;;14.23;8.00;;;;;;;2.00;100.00;103196.94;5071594;28;20040;-64
2021/03/07 01:34:10;;;;;;;16.15;8.63;;;;;;;1.99;100.00;103197.94;5071335;28;20498;-65
2021/03/07 01:36:36;;;;;;;14.25;9.20;;;;;;;1.96;100.00;103193.66;5072018;28;20127;-65
2021/03/07 01:39:03;;;;;;;13.50;8.95;;;;;;;1.96;100.00;103193.66;5071497;28;20043;-66
2021/03/07 01:41:29;;;;;;;15.55;8.38;;;;;;;1.95;100.00;103191.94;5071475;28;20490;-65
2021/03/07 01:43:55;;;;;;;13.55;8.07;;;;;;;1.96;100.00;103182.03;5071441;28;20124;-64
2021/03/07 01:46:21;;;;;;;11.40;7.88;;;;;;;1.95;100.00;103181.19;5071441;28;20036;-66
2021/03/07 01:48:48;;;;;;;11.98;8.10;;;;;;;1.94;100.00;103184.00;5071455;28;20043;-64
2021/03/07 01:51:14;;;;;;;13.60;7.20;;;;;;;1.92;100.00;103184.13;5071057;28;20095;-65
2021/03/07 01:53:40;;;;;;;14.60;8.93;;;;;;;1.90;100.00;103177.97;5071285;28;20044;-65
2021/03/07 01:56:07;;;;;;;12.10;7.57;;;;;;;1.90;100.00;103177.97;5071237;28;20368;-65
2021/03/07 01:58:36;;;;;;;12.23;7.57;;;;;;;1.88;100.00;103179.94;5071135;28;20036;-64
2021/03/07 02:01:03;;;;;;;12.57;7.60;;;;;;;1.86;100.00;103170.28;5071291;28;20139;-64
2021/03/07 02:03:28;;;;;;;18.33;7.53;;;;;;;1.84;100.00;103172.25;5071025;28;20044;-64
2021/03/07 02:05:55;;;;;;;11.63;8.10;;;;;;;1.81;100.00;103162.59;5071030;28;20071;-65
2021/03/07 02:08:22;;;;;;;12.77;7.35;;;;;;;1.78;100.00;103166.41;5071106;28;20487;-65
2021/03/07 02:10:56;;;;;;;12.48;7.45;;;;;;;1.77;100.00;103161.16;5071052;28;20111;-63
2021/03/07 02:13:33;;;;;;;12.40;7.75;;;;;;;1.72;100.00;103161.50;5070359;28;20406;-65
2021/03/07 02:16:03;;;;;;;13.45;7.60;;;;;;;1.71;100.00;103164.34;5070863;28;20037;-64
2021/03/07 02:18:32;;;;;;;11.38;7.80;;;;;;;1.70;100.00;103159.94;5071084;28;20076;-64
2021/03/07 02:21:22;;;;;;;14.70;8.02;;;;;;;1.69;100.00;103142.06;5070801;28;20033;-64
2021/03/07 02:24:02;;;;;;;11.07;7.22;;;;;;;1.68;100.00;103146.59;5070803;28;20038;-63
2021/03/07 02:26:28;;;;;;;12.30;7.43;;;;;;;1.66;100.00;103137.78;5071006;28;20558;-65
2021/03/07 02:28:54;;;;;;;15.70;7.93;;;;;;;1.65;100.00;103135.22;5070856;28;20115;-66
2021/03/07 02:31:22;;;;;;;12.82;7.70;;;;;;;1.63;100.00;103131.81;5070702;28;20443;-65
2021/03/07 02:33:54;;;;;;;21.40;8.73;;;;;;;1.62;100.00;103132.78;5070786;28;20032;-64
2021/03/07 02:36:29;;;;;;;15.10;7.82;;;;;;;1.61;100.00;103128.38;5070819;28;20545;-64
2021/03/07 02:38:57;;;;;;;10.65;7.43;;;;;;;1.60;100.00;103129.38;5052780;28;20569;-63
2021/03/07 02:41:23;;;;;;;9.55;7.18;;;;;;;1.57;100.00;103126.94;5070832;28;20036;-65
2021/03/07 02:43:54;;;;;;;15.02;8.52;;;;;;;1.55;100.00;103127.03;5070528;28;20487;-64
2021/03/07 02:46:21;;;;;;;14.48;8.70;;;;;;;1.54;100.00;103127.16;5070628;28;20060;-64
2021/03/07 02:48:54;;;;;;;17.80;8.50;;;;;;;1.52;100.00;103119.22;5070865;28;20051;-67
2021/03/07 02:51:26;;;;;;;13.75;7.30;;;;;;;1.50;100.00;103127.41;5070465;28;20043;-65
2021/03/07 02:53:57;;;;;;;12.65;7.60;;;;;;;1.49;100.00;103119.47;5070489;28;20060;-65
2021/03/07 02:56:26;;;;;;;11.43;7.05;;;;;;;1.48;100.00;103113.22;5052279;28;20037;-63
2021/03/07 02:58:59;;;;;;;12.80;7.00;;;;;;;1.46;100.00;103109.81;5070667;28;20052;-64
2021/03/07 03:01:27;;;;;;;11.70;7.40;;;;;;;1.43;100.00;103115.47;5070451;28;20036;-65
2021/03/07 03:03:54;;;;;;;9.18;6.70;;;;;;;1.42;100.00;103116.44;5070443;28;20051;-65
2021/03/07 03:06:20;;;;;;;10.45;6.70;;;;;;;1.41;100.00;103106.66;5070638;28;20047;-64
2021/03/07 03:08:51;;;;;;;11.00;7.22;;;;;;;1.40;100.00;103110.34;5052215;28;20044;-64
2021/03/07 03:11:21;;;;;;;12.93;7.28;;;;;;;1.41;100.00;103095.03;5070426;28;20115;-63
2021/03/07 03:13:50;;;;;;;11.55;6.90;;;;;;;1.40;100.00;103098.72;5070449;28;20075;-64
2021/03/07 03:16:17;;;;;;;8.93;6.78;;;;;;;1.38;100.00;103096.09;5070206;28;20475;-67
2021/03/07 03:18:44;;;;;;;13.75;7.68;;;;;;;1.35;100.00;103101.75;5070371;28;20479;-64
2021/03/07 03:21:12;;;;;;;11.15;7.20;;;;;;;1.33;100.00;103103.72;5070299;28;20040;-64
2021/03/07 03:23:38;;;;;;;13.32;7.13;;;;;;;1.33;100.00;103103.72;5070292;28;20406;-65
2021/03/07 03:26:04;;;;;;;11.57;6.25;;;;;;;1.33;100.00;103098.34;5072374;28;20511;-63
2021/03/07 03:28:31;;;;;;;7.10;6.40;;;;;;;1.33;100.00;103098.34;5074034;28;20071;-64
2021/03/07 03:30:57;;;;;;;11.15;6.60;;;;;;;1.33;100.00;103098.34;5074369;28;20044;-64
2021/03/07 03:33:24;;;;;;;12.80;6.50;;;;;;;1.33;100.00;103098.34;5073834;28;20097;-64
2021/03/07 03:35:50;;;;;;;11.65;7.03;;;;;;;1.33;100.00;103101.03;5073738;28;20039;-65
2021/03/07 03:38:17;;;;;;;11.60;8.10;;;;;;;1.33;100.00;103102.88;5074002;28;20040;-63
2021/03/07 03:40:46;;;;;;;10.20;7.22;;;;;;;1.32;100.00;103102.00;5073779;28;20091;-65
2021/03/07 03:43:13;;;;;;;12.40;7.43;;;;;;;1.31;100.00;103096.75;5073658;28;20046;-64
2021/03/07 03:45:41;;;;;;;9.05;6.65;;;;;;;1.31;100.00;103107.53;5073721;28;20494;-65
2021/03/07 03:48:21;;;;;;;11.50;7.30;;;;;;;1.29;100.00;103102.28;5073759;28;20066;-65
2021/03/07 03:50:47;;;;;;;12.73;7.65;;;;;;;1.28;100.00;103097.88;5073565;28;20478;-64
2021/03/07 03:53:17;;;;;;;12.07;8.25;;;;;;;1.26;100.00;103097.13;5073488;28;20072;-63
2021/03/07 03:55:46;;;;;;;15.38;7.63;;;;;;;1.24;100.00;103100.94;5073367;28;20032;-63
2021/03/07 03:58:14;;;;;;;9.50;7.45;;;;;;;1.21;100.00;103099.31;5073370;28;20058;-66
2021/03/07 04:00:43;;;;;;;11.73;7.80;;;;;;;1.19;100.00;103087.84;5073422;28;20097;-65
2021/03/07 04:03:14;;;;;;;12.55;7.35;;;;;;;1.17;100.00;103087.09;5073326;28;20455;-64
2021/03/07 04:05:46;;;;;;;15.80;8.52;;;;;;;1.15;100.00;103089.06;5073270;28;20367;-64
2021/03/07 04:08:16;;;;;;;12.68;7.88;;;;;;;1.15;100.00;103091.75;5073468;28;20024;-65
2021/03/07 04:10:45;;;;;;;15.23;8.27;;;;;;;1.14;100.00;103087.38;5073346;28;20082;-64
2021/03/07 04:13:16;;;;;;;10.85;8.57;;;;;;;1.12;100.00;103087.50;5073048;28;20059;-64
2021/03/07 04:15:43;;;;;;;11.63;7.68;;;;;;;1.12;100.00;103083.94;5073002;28;20140;-65
2021/03/07 04:18:12;;;;;;;12.20;7.70;;;;;;;1.10;100.00;103085.91;5073381;28;20127;-66
2021/03/07 04:20:38;;;;;;;13.25;7.53;;;;;;;1.07;100.00;103080.78;5073248;28;20033;-64
2021/03/07 04:23:03;;;;;;;13.38;7.88;;;;;;;1.06;100.00;103073.69;5072860;28;20513;-66
2021/03/07 04:25:29;;;;;;;11.80;7.28;;;;;;;1.04;100.00;103092.66;5072955;28;20110;-66
2021/03/07 04:27:56;;;;;;;13.75;8.25;;;;;;;1.02;100.00;103078.44;5072937;28;20042;-64
2021/03/07 04:30:22;;;;;;;11.18;8.20;;;;;;;1.02;100.00;103088.34;5072818;28;20075;-67
2021/03/07 04:32:49;;;;;;;14.35;8.40;;;;;;;0.99;100.00;103077.84;5054842;28;20105;-63
2021/03/07 04:35:15;;;;;;;13.70;8.75;;;;;;;1.00;100.00;103084.94;5072764;28;20040;-65
2021/03/07 04:37:41;;;;;;;12.95;8.60;;;;;;;0.99;100.00;103091.31;5072212;28;20423;-66
2021/03/07 04:40:07;;;;;;;14.98;9.50;;;;;;;0.98;100.00;103086.91;5072726;28;20040;-65
2021/03/07 04:42:33;;;;;;;14.00;9.32;;;;;;;1.00;100.00;103091.19;5072606;28;20115;-63
2021/03/07 04:44:59;;;;;;;12.32;8.00;;;;;;;1.01;100.00;103092.03;5072595;28;20033;-67
2021/03/07 04:47:25;;;;;;;18.15;10.32;;;;;;;1.00;100.00;103090.31;5072512;28;20051;-65
2021/03/07 04:49:51;;;;;;;14.18;8.73;;;;;;;1.00;100.00;103088.47;5072605;28;20079;-65
2021/03/07 04:52:17;;;;;;;13.30;8.90;;;;;;;1.00;100.00;103090.31;5072247;28;20056;-64
2021/03/07 04:54:42;;;;;;;17.73;9.70;;;;;;;0.98;100.00;103087.75;5072322;28;20036;-64
2021/03/07 04:57:08;;;;;;;17.02;9.63;;;;;;;0.98;100.00;103092.28;5072362;28;20040;-66
2021/03/07 04:59:34;;;;;;;17.08;9.70;;;;;;;0.98;100.00;103092.28;5072325;28;20131;-65
2021/03/07 05:01:59;;;;;;;17.90;10.20;;;;;;;0.96;100.00;103088.88;5054252;28;20040;-65
2021/03/07 05:04:25;;;;;;;16.42;9.65;;;;;;;0.95;100.00;103103.31;5072227;28;20445;-64
2021/03/07 05:06:51;;;;;;;15.32;9.65;;;;;;;0.92;100.00;103098.16;5072295;28;20036;-65
2021/03/07 05:09:17;;;;;;;12.02;9.35;;;;;;;0.89;100.00;103092.06;5072155;28;20043;-64
2021/03/07 05:11:44;;;;;;;16.70;9.88;;;;;;;0.88;100.00;103097.56;5072005;28;20044;-64
2021/03/07 05:14:09;;;;;;;14.27;9.07;;;;;;;0.86;100.00;103097.66;5071848;28;20094;-66
2021/03/07 05:16:35;;;;;;;12.70;8.95;;;;;;;0.85;100.00;103097.78;5071973;28;20040;-63
2021/03/07 05:19:02;;;;;;;12.93;8.75;;;;;;;0.82;100.00;103093.50;5071930;28;20059;-64
2021/03/07 05:21:27;;;;;;;16.95;9.45;;;;;;;0.81;100.00;103091.81;5071928;28;20551;-65
2021/03/07 05:23:56;;;;;;;15.00;9.00;;;;;;;0.78;100.00;103097.44;5071803;28;20036;-64
2021/03/07 05:26:22;;;;;;;16.67;8.82;;;;;;;0.77;100.00;103094.88;5071742;28;20040;-65
2021/03/07 05:28:48;;;;;;;13.32;9.50;;;;;;;0.75;100.00;103097.69;5071813;28;20093;-65
2021/03/07 05:31:14;;;;;;;17.83;10.55;;;;;;;0.75;100.00;103100.38;5071651;28;20074;-64
2021/03/07 05:33:40;;;;;;;15.07;9.82;;;;;;;0.75;100.00;103091.44;5071618;28;20071;-63
2021/03/07 05:36:06;;;;;;;17.95;9.30;;;;;;;0.74;100.00;103095.97;5071649;28;20036;-65
2021/03/07 05:38:31;;;;;;;16.33;9.65;;;;;;;0.73;100.00;103105.03;5071620;28;20489;-63
2021/03/07 05:40:57;;;;;;;15.45;9.68;;;;;;;0.73;100.00;103105.03;5071500;28;20502;-65
2021/03/07 05:43:24;;;;;;;16.55;9.45;;;;;;;0.72;100.00;103103.31;5071291;28;20067;-62
2021/03/07 05:45:50;;;;;;;16.30;9.32;;;;;;;0.70;100.00;103099.91;5071393;28;20068;-64
2021/03/07 05:48:16;;;;;;;15.30;9.77;;;;;;;0.68;100.00;103098.28;5070548;28;20043;-64
2021/03/07 05:50:42;;;;;;;17.38;9.10;;;;;;;0.66;100.00;103093.03;5071332;28;20032;-64
2021/03/07 05:53:08;;;;;;;16.00;9.32;;;;;;;0.64;100.00;103103.06;5071046;28;20049;-63
2021/03/07 05:55:34;;;;;;;17.67;9.65;;;;;;;0.63;100.00;103100.50;5071037;28;20044;-63
2021/03/07 05:58:01;;;;;;;13.80;9.18;;;;;;;0.62;100.00;103096.94;5071426;28;20493;-63
2021/03/07 06:00:28;;;;;;;14.05;8.85;;;;;;;0.60;100.00;103099.75;5053209;28;20047;-65
2021/03/07 06:02:54;;;;;;;18.70;9.63;;;;;;;0.59;100.00;103097.19;5053161;28;20082;-63
2021/03/07 06:05:20;;;;;;;17.23;9.15;;;;;;;0.57;100.00;103093.78;5053153;28;20036;-64
2021/03/07 06:07:47;;;;;;;13.93;8.32;;;;;;;0.57;100.00;103096.47;5071492;28;20051;-63
2021/03/07 06:10:19;;;;;;;16.02;9.40;;;;;;;0.55;100.00;103106.50;5071046;28;20525;-65
2021/03/07 06:13:09;;;;;;;13.55;8.85;;;;;;;0.53;100.00;103093.16;5070914;28;20028;-63
2021/03/07 06:15:35;;;;;;;13.90;9.10;;;;;;;0.52;100.00;103104.00;5070919;28;20029;-63
2021/03/07 06:18:10;;;;;;;15.30;9.07;;;;;;;0.52;100.00;103096.84;5071055;28;20040;-66
2021/03/07 06:20:36;;;;;;;17.25;9.55;;;;;;;0.51;100.00;103100.47;5070917;28;20128;-64
2021/03/07 06:23:03;;;;;;;14.23;9.35;;;;;;;0.51;100.00;103094.25;5070877;28;20447;-65
2021/03/07 06:25:30;;;;;;;14.70;9.00;;;;;;;0.51;100.00;103105.00;5070922;28;20029;-64
2021/03/07 06:27:56;;;;;;;12.95;9.05;;;;;;;0.49;100.00;103091.69;5070842;28;20123;-66
2021/03/07 06:30:24;;;;;;;14.70;9.00;;;;;;;0.47;100.00;103098.16;5070870;28;20036;-66
2021/03/07 06:32:59;;;;;;;14.63;9.77;;;;;;;0.46;100.00;103094.59;5070790;28;20557;-62
2021/03/07 06:35:33;;;;;;;14.48;9.30;;;;;;;0.44;100.00;103087.66;5070782;28;20570;-63
2021/03/07 06:38:04;;;;;;;18.65;10.38;;;;;;;0.44;100.00;103093.03;5070829;28;20032;-64
2021/03/07 06:40:44;;;;;;;15.15;9.75;;;;;;;0.43;100.00;103088.63;5070778;28;20037;-65
2021/03/07 06:43:27;;;;;;;16.40;9.93;;;;;;;0.42;100.00;103089.59;5070569;28;20406;-63
2021/03/07 06:45:53;;;;;;;18.73;10.90;;;;;;;0.40;100.00;103089.72;5070615;28;20115;-65
2021/03/07 06:48:19;;;;;;;18.23;10.98;;;;;;;0.40;100.00;103091.56;5070788;28;20124;-65
2021/03/07 06:50:56;;;;;;;17.17;10.55;;;;;;;0.39;100.00;103089.84;5070624;28;20386;-63
2021/03/07 06:53:36;;;;;;;17.35;10.63;;;;;;;0.39;100.00;103089.84;5070722;28;20048;-67
2021/03/07 06:56:04;;;;;;;17.35;10.82;;;;;;;0.40;100.00;103099.63;5070523;28;20086;-66
2021/03/07 06:58:30;;;;;;;16.48;10.63;;;;;;;0.40;100.00;103102.31;5070815;28;20043;-64
2021/03/07 07:00:55;;;;;;;18.20;11.50;;;;;;;0.41;100.00;103098.66;5074295;28;20036;-65
2021/03/07 07:03:21;;;;;;;16.85;10.93;;;;;;;0.42;100.00;103100.34;5074498;28;20391;-65
2021/03/07 07:05:52;;;;;;;17.88;10.85;;;;;;;0.43;100.00;103102.06;5074500;28;20036;-64
2021/03/07 07:08:38;;;;;;;17.98;11.25;;;;;;;0.44;100.00;103093.03;5074484;28;20036;-63
2021/03/07 07:11:04;;;;;;;15.93;10.40;;;;;;;0.43;100.00;103107.44;5074505;28;20034;-66
2021/03/07 07:13:31;;;;;;;15.27;10.43;;;;;;;0.42;100.00;103100.34;5074385;28;20044;-64
2021/03/07 07:16:02;;;;;;;16.33;11.10;;;;;;;0.42;100.00;103101.22;5074139;28;20477;-64
2021/03/07 07:18:33;;;;;;;20.65;11.23;;;;;;;0.43;100.00;103102.06;5074318;28;20035;-65
2021/03/07 07:21:01;;;;;;;17.75;11.95;;;;;;;0.45;100.00;103110.88;5074389;28;20040;-64
2021/03/07 07:23:28;;;;;;;16.75;11.35;;;;;;;0.44;100.00;103107.31;5074235;28;20116;-65
2021/03/07 07:25:54;;;;;;;20.45;12.02;;;;;;;0.46;100.00;103109.88;5074050;28;20120;-64
2021/03/07 07:28:20;;;;;;;20.33;11.95;;;;;;;0.46;100.00;103107.19;5074207;28;20036;-63
2021/03/07 07:31:00;;;;;;;21.02;11.70;;;;;;;0.45;100.00;103109.03;5073964;28;20035;-64
2021/03/07 07:33:52;;;;;;;17.77;11.60;;;;;;;0.46;100.00;103108.06;5055836;28;20037;-65
2021/03/07 07:36:24;;;;;;;22.98;12.02;;;;;;;0.47;100.00;103108.91;4972862;28;20629;-65
2021/03/07 07:38:53;;;;;;;18.80;11.27;;;;;;;0.50;100.00;103109.50;5067662;28;20105;-64
2021/03/07 07:41:40;;;;;;;17.95;11.27;;;;;;;0.53;100.00;103109.31;5073783;28;20032;-65
2021/03/07 07:44:10;;;;;;;15.90;11.40;;;;;;;0.57;100.00;103116.13;5073683;28;20040;-65
2021/03/07 07:46:56;;;;;;;19.75;11.55;;;;;;;0.63;100.00;103116.63;5073684;28;20035;-64
2021/03/07 07:49:54;;;;;;;15.68;11.02;;;;;;;0.67;100.00;103110.88;5073696;28;20032;-62
2021/03/07 07:52:26;;;;;;;15.95;11.25;;;;;;;0.70;100.00;103110.66;5072874;28;20494;-67
2021/03/07 07:54:54;;;;;;;17.20;10.82;;;;;;;0.75;100.00;103113.81;5055482;28;20448;-64
2021/03/07 07:57:32;;;;;;;13.95;10.40;;;;;;;0.76;100.00;103110.16;5073631;28;20384;-64
2021/03/07 08:00:03;;;;;;;16.70;11.13;;;;;;;0.78;100.00;103118.97;5073705;28;20044;-65
2021/03/07 08:02:47;;;;;;;20.33;12.10;;;;;;;0.83;100.00;103114.06;5073620;28;20036;-64
2021/03/07 08:05:22;;;;;;;14.68;10.82;;;;;;;0.89;100.00;103116.28;5073648;28;20115;-64
2021/03/07 08:08:04;;;;;;;19.20;11.00;;;;;;;0.98;100.00;103119.19;5073744;28;20041;-65
2021/03/07 08:10:42;;;;;;;16.80;10.68;;;;;;;1.04;100.00;103113.31;5072941;28;20036;-65
2021/03/07 08:13:15;;;;;;;16.88;11.32;;;;;;;1.10;100.00;103112.81;5073891;28;20437;-64
2021/03/07 08:15:41;;;;;;;17.27;11.50;;;;;;;1.17;100.00;103114.88;5073376;28;20051;-65
2021/03/07 08:18:07;;;;;;;18.75;11.38;;;;;;;1.24;100.00;103115.25;5073335;28;20033;-65
2021/03/07 08:20:39;;;;;;;17.88;11.10;;;;;;;1.29;100.00;103117.56;5073177;28;20082;-63
2021/03/07 08:23:05;;;;;;;15.63;10.90;;;;;;;1.32;100.00;103118.16;5073087;28;20479;-64
2021/03/07 08:26:02;;;;;;;15.38;10.93;;;;;;;1.38;100.00;103119.50;5073138;28;20035;-66
2021/03/07 08:28:28;;;;;;;15.75;10.45;;;;;;;1.43;100.00;103128.06;4971729;28;20043;-65
2021/03/07 08:31:01;;;;;;;17.02;10.77;;;;;;;1.50;100.00;103122.03;4971818;28;20038;-65
2021/03/07 08:33:29;;;;;;;16.00;10.90;;;;;;;1.58;100.00;103120.56;5059212;28;20452;-65
2021/03/07 08:36:14;;;;;;;16.90;10.73;;;;;;;1.64;100.00;103120.91;5072676;28;20037;-63
2021/03/07 08:38:50;;;;;;;18.95;9.80;;;;;;;1.70;100.00;103111.44;5073006;28;20032;-63
2021/03/07 08:41:17;;;;;;;17.92;10.10;;;;;;;1.76;100.00;103110.94;5072847;28;20487;-64
2021/03/07 08:43:44;;;;;;;17.10;10.40;;;;;;;1.82;100.00;103099.63;5072528;28;20032;-64
2021/03/07 08:46:34;;;;;;;16.25;10.10;;;;;;;1.86;100.00;103111.84;5072551;28;20032;-66
2021/03/07 08:49:24;;;;;;;18.60;10.63;;;;;;;1.95;100.00;103105.72;5066884;28;20048;-63
2021/03/07 08:51:56;;;;;;;16.60;10.50;;;;;;;2.00;100.00;103111.56;5072360;28;20406;-64
2021/03/07 08:54:22;;;;;;;16.55;10.27;;;;;;;2.06;100.00;103107.47;5072364;28;20060;-64
2021/03/07 08:56:52;;;;;;;14.98;10.90;;;;;;;2.15;100.00;103108.53;5072471;28;20535;-64
2021/03/07 08:59:18;;;;;;;15.15;10.70;;;;;;;2.23;100.00;103108.72;5072597;28;20467;-65
2021/03/07 09:01:48;;;;;;;14.07;11.82;;;;;;;2.30;100.00;103110.78;5072231;28;20064;-64
2021/03/07 09:04:14;;;;;;;19.90;11.95;;;;;;;2.39;100.00;103103.72;5072236;28;20612;-64
2021/03/07 09:06:43;;;;;;;16.10;11.55;;;;;;;2.47;100.00;103105.78;5072245;28;20041;-64
2021/03/07 09:09:12;;;;;;;14.68;10.68;;;;;;;2.57;100.00;103107.50;5072156;28;20040;-64
2021/03/07 09:11:56;;;;;;;20.58;10.55;;;;;;;2.69;100.00;103095.66;5072056;28;20086;-65
2021/03/07 09:14:34;;;;;;;14.73;11.07;;;;;;;2.83;100.00;103101.69;5072024;28;20135;-65
2021/03/07 09:17:02;;;;;;;18.13;11.93;;;;;;;2.94;100.00;103093.47;5071973;28;20459;-64
2021/03/07 09:19:40;;;;;;;13.10;10.45;;;;;;;3.05;100.00;103095.22;5072119;28;20038;-63
2021/03/07 09:22:12;;;;;;;15.93;10.98;;;;;;;3.15;100.00;103091.56;5071858;28;20119;-64
2021/03/07 09:24:38;;;;;;;15.60;10.65;;;;;;;3.25;100.00;103086.16;5071814;28;20035;-64
2021/03/07 09:27:11;;;;;;;13.80;10.40;;;;;;;3.35;100.00;103089.75;5071808;28;20044;-64
2021/03/07 09:29:54;;;;;;;13.52;10.43;;;;;;;3.44;100.00;103091.59;5071842;28;20028;-64
2021/03/07 09:32:37;;;;;;;16.25;11.38;;;;;;;3.54;100.00;103094.31;5071558;28;20040;-66
2021/03/07 09:35:31;;;;;;;15.05;10.90;;;;;;;3.68;100.00;103087.66;5071576;28;20489;-64
2021/03/07 09:37:56;;;;;;;13.65;10.60;;;;;;;3.84;100.00;103088.78;5071624;28;20546;-65
2021/03/07 09:40:23;;;;;;;15.30;10.30;;;;;;;3.98;100.00;103084.78;5071469;28;20131;-65
2021/03/07 09:43:01;;;;;;;17.30;11.23;;;;;;;4.12;100.00;103083.50;5071331;28;20123;-65
2021/03/07 09:45:28;;;;;;;14.68;10.10;;;;;;;4.23;100.00;103083.34;5071506;28;20131;-65
2021/03/07 09:47:54;;;;;;;17.17;10.48;;;;;;;4.29;100.00;103082.75;5071429;28;20130;-64
2021/03/07 09:50:22;;;;;;;15.30;10.35;;;;;;;4.47;100.00;103086.41;5071306;28;20479;-64
2021/03/07 09:52:49;;;;;;;16.20;10.70;;;;;;;4.57;100.00;103082.81;5071077;28;20056;-65
2021/03/07 09:55:31;;;;;;;17.48;10.50;;;;;;;4.72;100.00;103074.06;5071294;28;20417;-66
2021/03/07 09:58:01;;;;;;;13.82;10.27;;;;;;;4.82;100.00;103074.88;5071458;28;20139;-65
2021/03/07 10:00:28;;;;;;;15.57;10.07;;;;;;;4.95;100.00;103073.69;5071308;28;20967;-64
2021/03/07 10:02:54;;;;;;;16.05;11.00;;;;;;;5.08;100.00;103069.63;5071135;28;20037;-65
2021/03/07 10:05:20;;;;;;;14.65;10.43;;;;;;;5.27;100.00;103073.22;5071014;28;20040;-64
2021/03/07 10:07:46;;;;;;;14.32;9.88;;;;;;;5.43;100.00;103076.09;5053081;28;20044;-65
2021/03/07 10:10:23;;;;;;;16.63;10.25;;;;;;;5.62;100.00;103062.38;5071089;28;20060;-65
2021/03/07 10:12:57;;;;;;;14.80;10.10;;;;;;;5.83;100.00;103069.34;5070985;28;20046;-64
2021/03/07 10:15:30;;;;;;;10.98;9.10;;;;;;;6.04;100.00;103067.19;5052668;28;20085;-66
2021/03/07 10:18:17;;;;;;;14.85;10.35;;;;;;;6.20;100.00;103066.44;5070993;28;20028;-65
2021/03/07 10:20:48;;;;;;;12.57;9.75;;;;;;;6.16;100.00;103059.63;5070972;28;20047;-64
2021/03/07 10:23:14;;;;;;;12.35;9.15;;;;;;;6.15;100.00;103056.06;5071062;28;20063;-64
2021/03/07 10:25:41;;;;;;;12.68;8.80;;;;;;;6.05;100.00;103052.59;5070812;28;20415;-64
2021/03/07 10:28:09;;;;;;;14.80;10.13;;;;;;;6.13;100.00;103052.69;5036457;28;20036;-63
2021/03/07 10:30:41;;;;;;;14.45;9.77;;;;;;;6.22;100.00;103054.41;5070786;28;20483;-63
2021/03/07 10:33:09;;;;;;;11.80;8.88;;;;;;;6.33;100.00;103056.03;5070759;28;20121;-66
2021/03/07 10:35:36;;;;;;;9.93;8.50;;;;;;;6.30;100.00;103050.94;5070161;28;20090;-65
2021/03/07 10:38:02;;;;;;;11.32;7.93;;;;;;;6.48;100.00;103050.88;5070822;28;20471;-65
2021/03/07 10:40:34;;;;;;;9.30;7.63;;;;;;;6.62;100.00;103042.13;5070782;28;20033;-65
2021/03/07 10:43:04;;;;;;;8.88;7.47;;;;;;;6.79;100.00;103040.34;5070596;28;20079;-65
2021/03/07 10:45:31;;;;;;;13.95;7.65;;;;;;;6.98;100.00;103048.22;5070559;28;20394;-64
2021/03/07 10:48:04;;;;;;;9.82;6.55;;;;;;;7.19;100.00;103042.31;5070696;28;20060;-64
2021/03/07 10:50:33;;;;;;;9.07;7.20;;;;;;;7.38;100.00;103042.03;5070619;28;20042;-64
2021/03/07 10:52:59;;;;;;;9.00;7.05;;;;;;;7.45;100.00;103036.75;5070377;28;20498;-63
2021/03/07 10:55:25;;;;;;;10.50;6.70;;;;;;;7.63;100.00;103037.47;5070462;28;20062;-63
2021/03/07 10:57:52;;;;;;;9.05;6.70;;;;;;;7.76;98.67;103035.09;5070527;28;20435;-64
2021/03/07 11:00:19;;;;;;;10.38;6.82;;;;;;;7.92;99.65;103028.78;5070564;28;20051;-66
2021/03/07 11:02:46;;;;;;;6.97;6.30;;;;;;;8.00;96.85;103023.38;5070481;28;20036;-65
2021/03/07 11:05:13;;;;;;;8.95;5.95;;;;;;;8.07;96.39;103021.63;5070761;28;20060;-64
2021/03/07 11:07:43;;;;;;;11.00;7.40;;;;;;;8.09;92.02;103025.03;5052260;28;20413;-65
2021/03/07 11:10:12;;;;;;;8.20;6.82;;;;;;;8.12;89.66;103018.41;5070555;28;20605;-65
2021/03/07 11:12:38;;;;;;;8.98;6.30;;;;;;;8.15;87.42;103023.47;5070379;28;20402;-65
2021/03/07 11:15:06;;;;;;;8.80;6.50;;;;;;;8.22;90.48;103018.22;5070270;28;20097;-65
2021/03/07 11:17:31;;;;;;;6.63;5.93;;;;;;;8.30;91.60;103024.47;5070358;28;20123;-65
2021/03/07 11:19:57;;;;;;;9.73;6.57;;;;;;;8.39;89.00;103022.63;5070785;28;20440;-65
2021/03/07 11:22:23;;;;;;;10.00;5.78;;;;;;;8.50;91.84;103015.94;5070232;28;20048;-64
2021/03/07 11:24:49;;;;;;;6.65;5.97;;;;;;;8.66;92.44;103022.19;5070277;28;20032;-64